»·PEaware :: APA5350 CYVR-CYWG

APA5350 :: CYVR-CYWG

FLIGHT INFORMATION

Flight Status: Arrived
Operator: Unknown
More flights by this operator :: More flights under this callsign
Pilot: Stacy K. (11621)
Aircraft: BOEING 737-800
(B738)
More flights by this aircraft type
Origin: CYVR Vancouver Intl
Canada
Destination: CYWG Winnipeg Intl
Canada
More flights between these airports :: More routes between these airports
Route: ADSIX KESTA AXILI YDR J504 YBR BEFAN1
File this flight plan on PilotEdge
Remarks: PBN / A1B1C1D1S1S2 DOF / 180518 REG / N1404PK EET / CZEG0049 CZWG0116 SEL / DEFK OPR / APA PER / C RMK / TCAS SIMBRIEF
Altitude:
(Current/Filed)
33,000ft
Speed:
(Current/Filed)
451kts
Departed: 18-May-18 10:02 AM
Arrived: 18-May-18 12:30 PM
Distance/Time
Traveled:
1006nm/2:28
Distance/Time
To Go:
Arrived

Flight Plot

Page will automatically refresh every two minutes.

Flight plan parsing failed; only flown route is shown


Map Options




Map Legend


Flown Route
Filed Route
Departure Airport
Arrival Airport
Navaid (VOR, NDB)
Fix

Horizontal Profiles

Position Reports

Time Latitude Longitude Heading Altitude Ground
Speed
18-May-18 09:10 49.192020 -123.184783 52 24ft 0kts
18-May-18 09:11 49.192020 -123.184783 52 24ft 0kts
18-May-18 09:12 49.192020 -123.184783 52 24ft 0kts
18-May-18 09:13 49.192020 -123.184783 52 24ft 0kts
18-May-18 09:14 49.192020 -123.184783 52 24ft 0kts
18-May-18 09:15 49.192020 -123.184783 52 24ft 0kts
18-May-18 09:16 49.192020 -123.184783 52 24ft 0kts
18-May-18 09:17 49.192020 -123.184783 52 24ft 0kts
18-May-18 09:18 49.192020 -123.184783 52 24ft 0kts
18-May-18 09:19 49.192020 -123.184783 52 24ft 0kts
18-May-18 09:20 49.192020 -123.184783 52 24ft 0kts
18-May-18 09:21 49.192020 -123.184783 52 24ft 0kts
18-May-18 09:22 49.192020 -123.184783 52 24ft 0kts
18-May-18 09:23 49.192020 -123.184783 52 24ft 0kts
18-May-18 09:24 49.192020 -123.184783 52 24ft 0kts
18-May-18 09:25 49.192020 -123.184783 52 24ft 0kts
18-May-18 09:26 49.192020 -123.184783 52 24ft 0kts
18-May-18 09:27 49.192020 -123.184783 52 24ft 0kts
18-May-18 09:28 49.192020 -123.184783 52 24ft 0kts
18-May-18 09:29 49.192020 -123.184783 52 24ft 0kts
18-May-18 09:30 49.192020 -123.184783 52 24ft 0kts
18-May-18 09:31 49.192020 -123.184783 52 24ft 0kts
18-May-18 09:32 49.192020 -123.184783 52 24ft 0kts
18-May-18 09:33 49.192020 -123.184783 52 24ft 0kts
18-May-18 09:34 49.192020 -123.184783 52 24ft 0kts
18-May-18 09:35 49.192020 -123.184783 52 24ft 0kts
18-May-18 09:36 49.192020 -123.184783 52 24ft 0kts
18-May-18 09:37 49.192020 -123.184783 52 24ft 0kts
18-May-18 09:38 49.192020 -123.184783 52 24ft 0kts
18-May-18 09:39 49.192020 -123.184783 52 24ft 0kts
18-May-18 09:40 49.192020 -123.184783 52 24ft 0kts
18-May-18 09:41 49.192020 -123.184783 52 24ft 0kts
18-May-18 09:42 49.192020 -123.184783 52 24ft 0kts
18-May-18 09:43 49.192020 -123.184783 52 24ft 0kts
18-May-18 09:44 49.192020 -123.184783 52 24ft 0kts
18-May-18 09:45 49.192020 -123.184783 52 24ft 0kts
18-May-18 09:46 49.192020 -123.184783 52 24ft 0kts
18-May-18 09:47 49.191928 -123.184974 60 23ft 2kts
18-May-18 09:48 49.191967 -123.185805 142 23ft 2kts
18-May-18 09:49 49.192013 -123.185858 142 23ft 0kts
18-May-18 09:50 49.191336 -123.186155 206 23ft 8kts
18-May-18 09:51 49.189964 -123.188012 283 23ft 21kts
18-May-18 09:52 49.192755 -123.192348 320 23ft 15kts
18-May-18 09:53 49.193165 -123.193638 267 23ft 0kts
18-May-18 09:54 49.193165 -123.193640 267 23ft 0kts
18-May-18 09:55 49.193165 -123.193641 267 23ft 0kts
18-May-18 09:56 49.193165 -123.193642 267 23ft 0kts
18-May-18 09:57 49.193165 -123.193644 267 23ft 0kts
18-May-18 09:58 49.193164 -123.193645 267 23ft 0kts
18-May-18 09:59 49.192378 -123.200040 258 23ft 17kts
18-May-18 10:00 49.191992 -123.207700 247 23ft 12kts
18-May-18 10:01 49.190148 -123.208003 116 23ft 5kts
18-May-18 10:02 49.185384 -123.170301 102 636ft 191kts
18-May-18 10:03 49.174382 -123.072903 98 4154ft 256kts
18-May-18 10:04 49.163559 -122.962330 97 8248ft 271kts
18-May-18 10:05 49.151900 -122.842895 97 11647ft 311kts
18-May-18 10:06 49.136997 -122.697402 97 14204ft 367kts
18-May-18 10:07 49.120813 -122.539925 97 17546ft 383kts
18-May-18 10:08 49.126807 -122.374926 80 20364ft 398kts
18-May-18 10:09 49.143795 -122.205118 81 22852ft 413kts
18-May-18 10:10 49.160755 -122.027919 81 25038ft 426kts
18-May-18 10:11 49.177214 -121.847759 82 26957ft 438kts
18-May-18 10:12 49.193632 -121.661070 83 28752ft 445kts
18-May-18 10:13 49.209669 -121.475341 83 30780ft 440kts
18-May-18 10:14 49.225490 -121.289997 82 32490ft 438kts
18-May-18 10:15 49.241027 -121.105310 82 34016ft 437kts
18-May-18 10:16 49.258814 -120.921597 79 35365ft 437kts
18-May-18 10:17 49.280038 -120.737872 79 36522ft 438kts
18-May-18 10:18 49.300949 -120.553916 79 37120ft 435kts
18-May-18 10:19 49.321476 -120.370565 79 37130ft 436kts
18-May-18 10:20 49.342034 -120.186937 79 37130ft 436kts
18-May-18 10:21 49.362472 -120.003632 80 37130ft 436kts
18-May-18 10:22 49.381905 -119.819455 80 37130ft 438kts
18-May-18 10:23 49.401122 -119.634334 80 37130ft 438kts
18-May-18 10:24 49.420376 -119.449531 80 37129ft 438kts
18-May-18 10:25 49.439871 -119.263765 80 37130ft 439kts
18-May-18 10:26 49.458402 -119.078247 81 37130ft 441kts
18-May-18 10:27 49.476554 -118.891054 81 37125ft 443kts
18-May-18 10:28 49.497743 -118.672931 81 37123ft 443kts
18-May-18 10:29 49.513053 -118.516427 81 37123ft 445kts
18-May-18 10:30 49.530915 -118.327718 81 37125ft 445kts
18-May-18 10:31 49.548210 -118.138861 82 37127ft 446kts
18-May-18 10:32 49.565024 -117.949630 82 37132ft 446kts
18-May-18 10:33 49.581701 -117.759683 82 37132ft 446kts
18-May-18 10:34 49.598409 -117.570290 82 37133ft 448kts
18-May-18 10:35 49.615059 -117.379434 82 37139ft 448kts
18-May-18 10:36 49.630662 -117.188779 83 37137ft 448kts
18-May-18 10:37 49.646033 -116.997822 83 37141ft 450kts
18-May-18 10:38 49.661495 -116.806090 82 37183ft 451kts
18-May-18 10:39 49.677007 -116.614140 82 37224ft 452kts
18-May-18 10:40 49.692030 -116.421401 83 37239ft 453kts
18-May-18 10:41 49.706344 -116.228813 83 37248ft 454kts
18-May-18 10:42 49.720359 -116.034941 83 37248ft 454kts
18-May-18 10:43 49.734001 -115.841338 83 37246ft 454kts
18-May-18 10:44 49.747714 -115.647252 83 37255ft 455kts
18-May-18 10:45 49.761431 -115.453135 84 37281ft 453kts
18-May-18 10:46 49.774051 -115.259654 84 37334ft 454kts
18-May-18 10:47 49.786410 -115.065216 84 37381ft 454kts
18-May-18 10:48 49.798891 -114.870662 84 37398ft 455kts
18-May-18 10:49 49.811335 -114.675664 84 37400ft 456kts
18-May-18 10:50 49.822840 -114.480490 85 37397ft 456kts
18-May-18 10:51 49.833835 -114.284953 85 37396ft 457kts
18-May-18 10:52 49.844745 -114.089299 85 37395ft 456kts
18-May-18 10:53 49.855767 -113.893402 84 37392ft 456kts
18-May-18 10:54 49.866441 -113.697885 85 37390ft 456kts
18-May-18 10:55 49.876141 -113.501441 85 37390ft 456kts
18-May-18 10:56 49.885768 -113.305433 85 37390ft 456kts
18-May-18 10:57 49.895598 -113.109399 86 37390ft 456kts
18-May-18 10:58 49.904343 -112.913248 86 37389ft 456kts
18-May-18 10:59 49.913020 -112.716283 86 37387ft 456kts
18-May-18 11:00 49.921867 -112.520028 86 37385ft 457kts
18-May-18 11:01 49.929778 -112.322731 87 37383ft 457kts
18-May-18 11:02 49.937326 -112.125430 87 37380ft 458kts
18-May-18 11:03 49.944971 -111.928356 87 37375ft 457kts
18-May-18 11:04 49.952234 -111.730976 87 37368ft 457kts
18-May-18 11:05 49.958575 -111.533765 87 37362ft 458kts
18-May-18 11:06 49.965038 -111.336038 87 37357ft 458kts
18-May-18 11:07 49.970064 -111.184967 88 37354ft 458kts
18-May-18 11:08 49.975496 -110.994193 88 37351ft 460kts
18-May-18 11:09 49.981166 -110.795534 88 37350ft 461kts
18-May-18 11:10 49.986397 -110.596327 89 37350ft 462kts
18-May-18 11:11 49.991025 -110.396833 89 37350ft 463kts
18-May-18 11:12 49.995826 -110.196562 89 37349ft 464kts
18-May-18 11:13 50.000959 -109.996000 86 37349ft 465kts
18-May-18 11:14 50.015680 -109.795942 84 37346ft 465kts
18-May-18 11:15 50.031900 -109.596332 84 37346ft 467kts
18-May-18 11:16 50.047409 -109.395155 84 37345ft 467kts
18-May-18 11:17 50.062234 -109.194341 84 37343ft 469kts
18-May-18 11:18 50.077336 -108.992628 84 37326ft 470kts
18-May-18 11:19 50.091731 -108.789990 85 37317ft 471kts
18-May-18 11:20 50.105942 -108.587300 85 37315ft 471kts
18-May-18 11:21 50.119604 -108.384317 86 37313ft 470kts
18-May-18 11:22 50.132965 -108.181516 86 37312ft 471kts
18-May-18 11:23 50.145339 -107.992172 86 37311ft 470kts
18-May-18 11:24 50.155240 -107.830625 86 37310ft 470kts
18-May-18 11:25 50.167400 -107.627386 86 37310ft 471kts
18-May-18 11:26 50.179609 -107.423865 86 37310ft 473kts
18-May-18 11:27 50.191965 -107.219053 86 37309ft 474kts
18-May-18 11:28 50.203218 -107.013828 87 37308ft 475kts
18-May-18 11:29 50.214103 -106.808233 87 37307ft 476kts
18-May-18 11:30 50.225239 -106.602740 87 37306ft 475kts
18-May-18 11:31 50.235358 -106.396830 88 37305ft 476kts
18-May-18 11:32 50.245741 -106.190449 88 37306ft 475kts
18-May-18 11:33 50.255234 -105.984710 88 37308ft 475kts
18-May-18 11:34 50.264264 -105.778622 88 37309ft 475kts
18-May-18 11:35 50.273499 -105.572309 88 37310ft 477kts
18-May-18 11:36 50.282303 -105.365800 89 37309ft 477kts
18-May-18 11:37 50.290258 -105.158409 89 37302ft 478kts
18-May-18 11:38 50.295951 -105.007730 89 37293ft 479kts
18-May-18 11:39 50.301759 -104.856199 89 37285ft 478kts
18-May-18 11:40 50.309111 -104.648590 89 37281ft 478kts
18-May-18 11:41 50.316056 -104.441173 89 37279ft 476kts
18-May-18 11:42 50.322814 -104.234252 90 37278ft 476kts
18-May-18 11:43 50.328701 -104.027450 90 37278ft 475kts
18-May-18 11:44 50.334716 -103.821179 90 37275ft 474kts
18-May-18 11:45 50.340310 -103.614827 90 37271ft 475kts
18-May-18 11:46 50.345155 -103.407648 91 37267ft 477kts
18-May-18 11:47 50.350133 -103.199424 91 37253ft 479kts
18-May-18 11:48 50.354640 -102.990953 91 37249ft 479kts
18-May-18 11:49 50.358457 -102.782462 91 37246ft 479kts
18-May-18 11:50 50.362398 -102.573838 92 37245ft 477kts
18-May-18 11:51 50.338744 -102.373345 109 37237ft 467kts
18-May-18 11:52 50.305042 -102.177392 109 37229ft 466kts
18-May-18 11:53 50.271958 -101.981978 109 37227ft 464kts
18-May-18 11:54 50.238322 -101.786629 109 37225ft 465kts
18-May-18 11:55 50.204722 -101.591473 109 37224ft 467kts
18-May-18 11:56 50.171195 -101.395768 109 37223ft 468kts
18-May-18 11:57 50.136890 -101.199363 110 37223ft 470kts
18-May-18 11:58 50.102280 -101.002023 110 37223ft 471kts
18-May-18 11:59 50.067166 -100.805480 111 37223ft 473kts
18-May-18 12:00 50.031716 -100.607687 111 37223ft 473kts
18-May-18 12:01 49.995895 -100.411501 111 36272ft 470kts
18-May-18 12:02 49.966087 -100.249040 111 34775ft 467kts
18-May-18 12:03 49.930387 -100.054973 111 32974ft 463kts
18-May-18 12:04 49.904839 -99.861319 100 31180ft 459kts
18-May-18 12:05 49.896126 -99.666667 98 29380ft 446kts
18-May-18 12:06 49.885984 -99.446284 98 27275ft 432kts
18-May-18 12:07 49.877057 -99.263122 98 25473ft 419kts
18-May-18 12:08 49.867906 -99.085648 97 23674ft 407kts
18-May-18 12:09 49.859025 -98.917547 98 21860ft 362kts
18-May-18 12:10 49.850452 -98.766104 98 20057ft 345kts
18-May-18 12:11 49.843586 -98.644513 98 18558ft 335kts
18-May-18 12:12 49.835751 -98.503781 98 16946ft 321kts
18-May-18 12:13 49.827771 -98.367320 96 15344ft 316kts
18-May-18 12:14 49.819832 -98.234155 95 13769ft 305kts
18-May-18 12:15 49.811982 -98.104596 93 12372ft 298kts
18-May-18 12:16 49.805173 -97.993248 92 11134ft 288kts
18-May-18 12:17 49.799357 -97.875910 90 9734ft 263kts
18-May-18 12:18 49.793957 -97.767800 90 8389ft 237kts
18-May-18 12:19 49.788909 -97.667622 89 7180ft 227kts
18-May-18 12:20 49.783943 -97.571670 90 6127ft 222kts
18-May-18 12:21 49.771591 -97.484198 97 6008ft 200kts
18-May-18 12:22 49.736811 -97.420168 161 5422ft 228kts
18-May-18 12:23 49.683477 -97.398502 110 4149ft 187kts
18-May-18 12:24 49.702873 -97.335537 54 3138ft 163kts
18-May-18 12:25 49.732831 -97.285504 36 3018ft 164kts
18-May-18 12:26 49.778771 -97.267790 8 2998ft 164kts
18-May-18 12:27 49.824334 -97.258113 12 2215ft 158kts
18-May-18 12:28 49.866027 -97.248813 13 1386ft 133kts
18-May-18 12:29 49.901179 -97.240070 12 792ft 84kts
18-May-18 12:30 49.906584 -97.222412 187 792ft 4kts
18-May-18 12:31 49.906546 -97.222420 187 792ft 0kts
18-May-18 12:32 49.906655 -97.222397 187 792ft 0kts

Navigation Log

Ident Type
Flight plan parsing failed, navigation log unavailable